sensor_id;sensor_type;location;lat;lon;timestamp;pressure;altitude;pressure_sealevel;temperature;humidity
39954;BME280;25631;51.516;-0.470;2023-02-04T00:01:34;103344.21;;;8.26;41.88
39954;BME280;25631;51.516;-0.470;2023-02-04T00:04:12;103344.15;;;8.59;41.88
39954;BME280;25631;51.516;-0.470;2023-02-04T00:06:48;103339.09;;;8.54;41.92
39954;BME280;25631;51.516;-0.470;2023-02-04T00:09:25;103337.87;;;8.38;41.90
39954;BME280;25631;51.516;-0.470;2023-02-04T00:12:02;103340.83;;;8.53;41.94
39954;BME280;25631;51.516;-0.470;2023-02-04T00:14:38;103343.89;;;8.63;42.00
39954;BME280;25631;51.516;-0.470;2023-02-04T00:17:15;103344.26;;;8.69;41.96
39954;BME280;25631;51.516;-0.470;2023-02-04T00:19:51;103344.41;;;8.27;41.96
39954;BME280;25631;51.516;-0.470;2023-02-04T00:22:28;103350.10;;;8.49;41.94
39954;BME280;25631;51.516;-0.470;2023-02-04T00:25:05;103347.69;;;8.44;41.98
39954;BME280;25631;51.516;-0.470;2023-02-04T00:27:42;103343.24;;;8.60;41.95
39954;BME280;25631;51.516;-0.470;2023-02-04T00:30:19;103344.97;;;8.45;42.00
39954;BME280;25631;51.516;-0.470;2023-02-04T00:32:56;103347.71;;;8.47;42.06
39954;BME280;25631;51.516;-0.470;2023-02-04T00:35:33;103351.08;;;8.45;42.07
39954;BME280;25631;51.516;-0.470;2023-02-04T00:38:09;103355.71;;;8.47;42.04
39954;BME280;25631;51.516;-0.470;2023-02-04T00:40:46;103356.70;;;8.53;42.05
39954;BME280;25631;51.516;-0.470;2023-02-04T00:43:22;103354.78;;;8.45;42.04
39954;BME280;25631;51.516;-0.470;2023-02-04T00:45:59;103356.48;;;8.62;42.02
39954;BME280;25631;51.516;-0.470;2023-02-04T00:48:35;103358.49;;;8.42;42.02
39954;BME280;25631;51.516;-0.470;2023-02-04T00:51:12;103357.34;;;8.42;42.00
39954;BME280;25631;51.516;-0.470;2023-02-04T00:53:49;103358.89;;;8.62;42.00
39954;BME280;25631;51.516;-0.470;2023-02-04T00:56:25;103363.46;;;8.63;42.03
39954;BME280;25631;51.516;-0.470;2023-02-04T00:59:02;103366.93;;;8.67;42.00
39954;BME280;25631;51.516;-0.470;2023-02-04T01:01:38;103366.18;;;8.54;42.04
39954;BME280;25631;51.516;-0.470;2023-02-04T01:04:15;103363.43;;;8.53;42.02
39954;BME280;25631;51.516;-0.470;2023-02-04T01:06:52;103361.39;;;8.54;42.01
39954;BME280;25631;51.516;-0.470;2023-02-04T01:09:29;103363.53;;;8.72;42.04
39954;BME280;25631;51.516;-0.470;2023-02-04T01:12:05;103364.57;;;8.37;42.17
39954;BME280;25631;51.516;-0.470;2023-02-04T01:14:42;103369.41;;;8.35;42.28
39954;BME280;25631;51.516;-0.470;2023-02-04T01:17:19;103375.73;;;8.41;42.29
39954;BME280;25631;51.516;-0.470;2023-02-04T01:19:56;103379.87;;;8.39;42.25
39954;BME280;25631;51.516;-0.470;2023-02-04T01:22:32;103378.59;;;8.42;42.20
39954;BME280;25631;51.516;-0.470;2023-02-04T01:25:09;103379.13;;;8.35;42.18
39954;BME280;25631;51.516;-0.470;2023-02-04T01:27:46;103381.86;;;8.40;42.18
39954;BME280;25631;51.516;-0.470;2023-02-04T01:30:22;103381.62;;;8.51;42.17
39954;BME280;25631;51.516;-0.470;2023-02-04T01:32:59;103384.84;;;8.43;42.28
39954;BME280;25631;51.516;-0.470;2023-02-04T01:35:35;103384.74;;;8.43;42.29
39954;BME280;25631;51.516;-0.470;2023-02-04T01:38:12;103387.50;;;8.43;42.28
39954;BME280;25631;51.516;-0.470;2023-02-04T01:40:48;103392.66;;;8.50;42.40
39954;BME280;25631;51.516;-0.470;2023-02-04T01:43:25;103395.69;;;8.33;42.48
39954;BME280;25631;51.516;-0.470;2023-02-04T01:46:02;103395.84;;;8.29;42.65
39954;BME280;25631;51.516;-0.470;2023-02-04T01:48:39;103393.01;;;8.13;42.56
39954;BME280;25631;51.516;-0.470;2023-02-04T01:51:20;103394.71;;;8.28;42.59
39954;BME280;25631;51.516;-0.470;2023-02-04T01:54:00;103390.88;;;7.94;42.67
39954;BME280;25631;51.516;-0.470;2023-02-04T01:56:37;103390.68;;;8.22;42.70
39954;BME280;25631;51.516;-0.470;2023-02-04T01:59:16;103393.16;;;8.26;42.71
39954;BME280;25631;51.516;-0.470;2023-02-04T02:01:53;103393.75;;;8.39;42.69
39954;BME280;25631;51.516;-0.470;2023-02-04T02:04:32;103396.64;;;8.24;42.79
39954;BME280;25631;51.516;-0.470;2023-02-04T02:07:09;103399.90;;;8.30;42.74
39954;BME280;25631;51.516;-0.470;2023-02-04T02:09:45;103402.77;;;8.46;42.73
39954;BME280;25631;51.516;-0.470;2023-02-04T02:12:22;103402.01;;;8.40;42.70
39954;BME280;25631;51.516;-0.470;2023-02-04T02:14:59;103403.84;;;8.48;42.79
39954;BME280;25631;51.516;-0.470;2023-02-04T02:17:38;103404.26;;;8.43;42.71
39954;BME280;25631;51.516;-0.470;2023-02-04T02:20:21;103402.82;;;8.56;42.63
39954;BME280;25631;51.516;-0.470;2023-02-04T02:23:03;103400.92;;;8.67;42.65
39954;BME280;25631;51.516;-0.470;2023-02-04T02:25:42;103400.62;;;8.49;42.63
39954;BME280;25631;51.516;-0.470;2023-02-04T02:28:20;103400.20;;;8.44;42.70
39954;BME280;25631;51.516;-0.470;2023-02-04T02:30:58;103396.01;;;8.32;42.77
39954;BME280;25631;51.516;-0.470;2023-02-04T02:33:35;103396.78;;;8.21;42.91
39954;BME280;25631;51.516;-0.470;2023-02-04T02:36:11;103397.11;;;8.46;42.84
39954;BME280;25631;51.516;-0.470;2023-02-04T02:38:48;103393.59;;;8.46;42.91
39954;BME280;25631;51.516;-0.470;2023-02-04T02:41:24;103392.68;;;8.43;42.89
39954;BME280;25631;51.516;-0.470;2023-02-04T02:44:01;103391.34;;;8.36;42.94
39954;BME280;25631;51.516;-0.470;2023-02-04T02:46:43;103387.78;;;8.41;42.87
39954;BME280;25631;51.516;-0.470;2023-02-04T02:49:21;103389.24;;;8.49;42.77
39954;BME280;25631;51.516;-0.470;2023-02-04T02:51:58;103389.88;;;8.68;42.74
39954;BME280;25631;51.516;-0.470;2023-02-04T02:54:35;103392.19;;;8.36;42.95
39954;BME280;25631;51.516;-0.470;2023-02-04T02:57:13;103391.29;;;8.32;43.08
39954;BME280;25631;51.516;-0.470;2023-02-04T02:59:50;103383.30;;;8.25;43.20
39954;BME280;25631;51.516;-0.470;2023-02-04T03:02:27;103378.88;;;8.16;43.23
39954;BME280;25631;51.516;-0.470;2023-02-04T03:05:04;103378.99;;;8.24;43.32
39954;BME280;25631;51.516;-0.470;2023-02-04T03:07:40;103378.81;;;8.14;43.31
39954;BME280;25631;51.516;-0.470;2023-02-04T03:10:17;103381.76;;;8.17;43.32
39954;BME280;25631;51.516;-0.470;2023-02-04T03:12:54;103382.26;;;8.02;43.38
39954;BME280;25631;51.516;-0.470;2023-02-04T03:15:36;103380.69;;;7.92;43.64
39954;BME280;25631;51.516;-0.470;2023-02-04T03:18:16;103377.52;;;7.88;43.71
39954;BME280;25631;51.516;-0.470;2023-02-04T03:20:54;103378.00;;;7.90;43.85
39954;BME280;25631;51.516;-0.470;2023-02-04T03:23:32;103374.27;;;7.88;43.85
39954;BME280;25631;51.516;-0.470;2023-02-04T03:26:09;103370.20;;;8.18;43.85
39954;BME280;25631;51.516;-0.470;2023-02-04T03:28:45;103372.43;;;7.97;43.76
39954;BME280;25631;51.516;-0.470;2023-02-04T03:31:22;103375.51;;;7.83;43.85
39954;BME280;25631;51.516;-0.470;2023-02-04T03:33:58;103374.12;;;8.08;43.91
39954;BME280;25631;51.516;-0.470;2023-02-04T03:36:35;103372.20;;;7.97;43.89
39954;BME280;25631;51.516;-0.470;2023-02-04T03:39:24;103372.15;;;8.00;43.99
39954;BME280;25631;51.516;-0.470;2023-02-04T03:42:01;103369.16;;;7.97;43.93
39954;BME280;25631;51.516;-0.470;2023-02-04T03:44:38;103369.46;;;7.83;43.88
39954;BME280;25631;51.516;-0.470;2023-02-04T03:47:14;103367.52;;;7.93;43.88
39954;BME280;25631;51.516;-0.470;2023-02-04T03:49:51;103367.36;;;7.97;43.80
39954;BME280;25631;51.516;-0.470;2023-02-04T03:52:27;103362.02;;;8.04;43.74
39954;BME280;25631;51.516;-0.470;2023-02-04T03:55:05;103360.30;;;7.93;43.84
39954;BME280;25631;51.516;-0.470;2023-02-04T03:57:41;103366.47;;;8.14;43.77
39954;BME280;25631;51.516;-0.470;2023-02-04T04:00:18;103367.13;;;7.98;43.71
39954;BME280;25631;51.516;-0.470;2023-02-04T04:02:55;103364.26;;;8.15;43.70
39954;BME280;25631;51.516;-0.470;2023-02-04T04:05:31;103367.12;;;8.01;43.68
39954;BME280;25631;51.516;-0.470;2023-02-04T04:08:08;103372.83;;;7.91;43.64
39954;BME280;25631;51.516;-0.470;2023-02-04T04:10:44;103375.98;;;7.94;43.68
39954;BME280;25631;51.516;-0.470;2023-02-04T04:13:21;103375.52;;;7.86;43.66
39954;BME280;25631;51.516;-0.470;2023-02-04T04:15:58;103373.88;;;7.96;43.69
39954;BME280;25631;51.516;-0.470;2023-02-04T04:18:35;103369.85;;;7.86;43.64
39954;BME280;25631;51.516;-0.470;2023-02-04T04:21:11;103376.45;;;7.94;43.59
39954;BME280;25631;51.516;-0.470;2023-02-04T04:23:48;103380.94;;;8.36;43.62
39954;BME280;25631;51.516;-0.470;2023-02-04T04:26:24;103381.78;;;8.11;43.55
39954;BME280;25631;51.516;-0.470;2023-02-04T04:29:01;103383.33;;;7.97;43.52
39954;BME280;25631;51.516;-0.470;2023-02-04T04:31:37;103391.09;;;8.27;43.39
39954;BME280;25631;51.516;-0.470;2023-02-04T04:34:14;103388.89;;;8.12;43.36
39954;BME280;25631;51.516;-0.470;2023-02-04T04:36:50;103392.90;;;8.13;43.39
39954;BME280;25631;51.516;-0.470;2023-02-04T04:39:27;103386.72;;;8.06;43.44
39954;BME280;25631;51.516;-0.470;2023-02-04T04:42:04;103384.78;;;8.37;43.40
39954;BME280;25631;51.516;-0.470;2023-02-04T04:44:41;103386.17;;;7.69;43.44
39954;BME280;25631;51.516;-0.470;2023-02-04T04:47:17;103392.81;;;7.83;43.46
39954;BME280;25631;51.516;-0.470;2023-02-04T04:49:54;103393.27;;;8.00;43.35
39954;BME280;25631;51.516;-0.470;2023-02-04T04:52:30;103392.38;;;7.69;43.32
39954;BME280;25631;51.516;-0.470;2023-02-04T04:55:08;103400.80;;;7.91;43.40
39954;BME280;25631;51.516;-0.470;2023-02-04T04:57:44;103406.29;;;7.78;43.36
39954;BME280;25631;51.516;-0.470;2023-02-04T05:00:21;103403.89;;;7.87;43.33
39954;BME280;25631;51.516;-0.470;2023-02-04T05:02:58;103400.96;;;7.68;43.25
39954;BME280;25631;51.516;-0.470;2023-02-04T05:05:35;103407.58;;;7.68;43.37
39954;BME280;25631;51.516;-0.470;2023-02-04T05:08:11;103408.77;;;7.78;43.46
39954;BME280;25631;51.516;-0.470;2023-02-04T05:10:48;103408.98;;;7.69;43.51
39954;BME280;25631;51.516;-0.470;2023-02-04T05:13:24;103408.43;;;7.68;43.37
39954;BME280;25631;51.516;-0.470;2023-02-04T05:16:01;103406.86;;;7.87;43.41
39954;BME280;25631;51.516;-0.470;2023-02-04T05:18:38;103409.54;;;7.59;43.53
39954;BME280;25631;51.516;-0.470;2023-02-04T05:21:14;103411.65;;;7.76;43.56
39954;BME280;25631;51.516;-0.470;2023-02-04T05:23:51;103411.34;;;8.36;43.53
39954;BME280;25631;51.516;-0.470;2023-02-04T05:26:28;103413.93;;;7.81;43.49
39954;BME280;25631;51.516;-0.470;2023-02-04T05:29:04;103416.07;;;7.61;43.43
39954;BME280;25631;51.516;-0.470;2023-02-04T05:31:41;103420.59;;;7.83;43.41
39954;BME280;25631;51.516;-0.470;2023-02-04T05:34:17;103422.21;;;7.90;43.39
39954;BME280;25631;51.516;-0.470;2023-02-04T05:36:54;103427.25;;;7.51;43.44
39954;BME280;25631;51.516;-0.470;2023-02-04T05:39:31;103428.82;;;7.65;43.46
39954;BME280;25631;51.516;-0.470;2023-02-04T05:42:07;103432.62;;;7.39;43.41
39954;BME280;25631;51.516;-0.470;2023-02-04T05:44:49;103430.85;;;7.85;43.33
39954;BME280;25631;51.516;-0.470;2023-02-04T05:47:26;103433.08;;;7.54;43.46
39954;BME280;25631;51.516;-0.470;2023-02-04T05:50:03;103433.48;;;7.74;43.35
39954;BME280;25631;51.516;-0.470;2023-02-04T05:52:40;103432.72;;;7.57;43.53
39954;BME280;25631;51.516;-0.470;2023-02-04T05:55:16;103438.15;;;7.51;43.58
39954;BME280;25631;51.516;-0.470;2023-02-04T05:57:53;103436.11;;;7.55;43.76
39954;BME280;25631;51.516;-0.470;2023-02-04T06:00:30;103432.07;;;7.61;43.67
39954;BME280;25631;51.516;-0.470;2023-02-04T06:03:06;103428.23;;;7.64;43.69
39954;BME280;25631;51.516;-0.470;2023-02-04T06:05:43;103429.64;;;7.53;43.53
39954;BME280;25631;51.516;-0.470;2023-02-04T06:08:19;103427.89;;;7.40;43.58
39954;BME280;25631;51.516;-0.470;2023-02-04T06:10:56;103432.79;;;7.61;43.55
39954;BME280;25631;51.516;-0.470;2023-02-04T06:13:32;103436.67;;;7.73;43.62
39954;BME280;25631;51.516;-0.470;2023-02-04T06:16:09;103434.62;;;7.48;43.65
39954;BME280;25631;51.516;-0.470;2023-02-04T06:18:46;103437.22;;;7.68;43.63
39954;BME280;25631;51.516;-0.470;2023-02-04T06:21:22;103441.63;;;7.55;43.60
39954;BME280;25631;51.516;-0.470;2023-02-04T06:23:59;103447.34;;;7.45;43.58
39954;BME280;25631;51.516;-0.470;2023-02-04T06:26:35;103445.88;;;7.74;43.56
39954;BME280;25631;51.516;-0.470;2023-02-04T06:29:12;103440.31;;;7.39;43.48
39954;BME280;25631;51.516;-0.470;2023-02-04T06:31:48;103441.80;;;7.17;43.46
39954;BME280;25631;51.516;-0.470;2023-02-04T06:34:25;103442.46;;;7.57;43.27
39954;BME280;25631;51.516;-0.470;2023-02-04T06:37:01;103443.03;;;7.46;43.30
39954;BME280;25631;51.516;-0.470;2023-02-04T06:39:38;103444.68;;;7.68;43.43
39954;BME280;25631;51.516;-0.470;2023-02-04T06:42:14;103447.64;;;7.54;43.41
39954;BME280;25631;51.516;-0.470;2023-02-04T06:44:51;103452.55;;;7.62;43.48
39954;BME280;25631;51.516;-0.470;2023-02-04T06:47:29;103456.04;;;7.30;43.39
39954;BME280;25631;51.516;-0.470;2023-02-04T06:50:06;103460.80;;;7.38;43.28
39954;BME280;25631;51.516;-0.470;2023-02-04T06:52:43;103462.26;;;7.65;43.32
39954;BME280;25631;51.516;-0.470;2023-02-04T06:55:19;103464.62;;;7.68;43.26
39954;BME280;25631;51.516;-0.470;2023-02-04T06:57:56;103468.76;;;7.68;43.27
39954;BME280;25631;51.516;-0.470;2023-02-04T07:00:32;103467.75;;;7.40;43.26
39954;BME280;25631;51.516;-0.470;2023-02-04T07:03:09;103463.32;;;7.70;43.20
39954;BME280;25631;51.516;-0.470;2023-02-04T07:05:46;103464.21;;;7.51;43.21
39954;BME280;25631;51.516;-0.470;2023-02-04T07:08:23;103460.16;;;7.55;43.11
39954;BME280;25631;51.516;-0.470;2023-02-04T07:10:59;103459.22;;;7.37;43.13
39954;BME280;25631;51.516;-0.470;2023-02-04T07:13:36;103456.81;;;7.97;43.11
39954;BME280;25631;51.516;-0.470;2023-02-04T07:16:13;103460.24;;;7.56;43.17
39954;BME280;25631;51.516;-0.470;2023-02-04T07:18:50;103461.34;;;7.48;43.15
39954;BME280;25631;51.516;-0.470;2023-02-04T07:21:26;103463.60;;;7.65;43.10
39954;BME280;25631;51.516;-0.470;2023-02-04T07:24:03;103463.22;;;7.55;43.15
39954;BME280;25631;51.516;-0.470;2023-02-04T07:26:40;103464.32;;;7.80;43.14
39954;BME280;25631;51.516;-0.470;2023-02-04T07:29:17;103468.57;;;7.66;43.06
39954;BME280;25631;51.516;-0.470;2023-02-04T07:31:54;103470.80;;;7.57;43.03
39954;BME280;25631;51.516;-0.470;2023-02-04T07:34:30;103476.44;;;7.48;42.96
39954;BME280;25631;51.516;-0.470;2023-02-04T07:37:07;103478.64;;;7.95;42.99
39954;BME280;25631;51.516;-0.470;2023-02-04T07:39:44;103480.94;;;7.57;42.96
39954;BME280;25631;51.516;-0.470;2023-02-04T07:42:21;103482.97;;;7.89;43.01
39954;BME280;25631;51.516;-0.470;2023-02-04T07:45:03;103481.00;;;7.39;42.96
39954;BME280;25631;51.516;-0.470;2023-02-04T07:47:40;103483.15;;;7.88;42.95
39954;BME280;25631;51.516;-0.470;2023-02-04T07:50:16;103486.00;;;7.40;42.94
39954;BME280;25631;51.516;-0.470;2023-02-04T07:52:53;103487.00;;;7.88;42.94
39954;BME280;25631;51.516;-0.470;2023-02-04T07:55:29;103490.41;;;7.51;42.93
39954;BME280;25631;51.516;-0.470;2023-02-04T07:58:11;103492.00;;;7.44;42.96
39954;BME280;25631;51.516;-0.470;2023-02-04T08:00:48;103496.64;;;7.81;42.89
39954;BME280;25631;51.516;-0.470;2023-02-04T08:03:25;103499.40;;;8.14;42.89
39954;BME280;25631;51.516;-0.470;2023-02-04T08:06:11;103500.22;;;7.53;42.90
39954;BME280;25631;51.516;-0.470;2023-02-04T08:08:53;103507.22;;;7.59;42.83
39954;BME280;25631;51.516;-0.470;2023-02-04T08:11:30;103507.77;;;7.75;42.77
39954;BME280;25631;51.516;-0.470;2023-02-04T08:14:12;103509.10;;;7.74;42.81
39954;BME280;25631;51.516;-0.470;2023-02-04T08:16:48;103511.43;;;7.84;42.81
39954;BME280;25631;51.516;-0.470;2023-02-04T08:19:25;103514.11;;;7.61;42.69
39954;BME280;25631;51.516;-0.470;2023-02-04T08:22:02;103519.23;;;7.78;42.64
39954;BME280;25631;51.516;-0.470;2023-02-04T08:24:38;103521.21;;;7.89;42.63
39954;BME280;25631;51.516;-0.470;2023-02-04T08:27:15;103523.63;;;7.57;42.71
39954;BME280;25631;51.516;-0.470;2023-02-04T08:29:51;103529.67;;;7.88;42.66
39954;BME280;25631;51.516;-0.470;2023-02-04T08:32:28;103534.23;;;7.99;42.73
39954;BME280;25631;51.516;-0.470;2023-02-04T08:35:06;103539.88;;;8.19;42.70
39954;BME280;25631;51.516;-0.470;2023-02-04T08:37:42;103539.70;;;7.63;42.60
39954;BME280;25631;51.516;-0.470;2023-02-04T08:40:19;103541.51;;;7.64;42.62
39954;BME280;25631;51.516;-0.470;2023-02-04T08:42:55;103541.40;;;7.51;42.61
39954;BME280;25631;51.516;-0.470;2023-02-04T08:45:32;103545.70;;;7.57;42.68
39954;BME280;25631;51.516;-0.470;2023-02-04T08:48:09;103548.12;;;7.96;42.67
39954;BME280;25631;51.516;-0.470;2023-02-04T08:50:46;103553.20;;;7.42;42.62
39954;BME280;25631;51.516;-0.470;2023-02-04T08:53:22;103554.03;;;7.42;42.63
39954;BME280;25631;51.516;-0.470;2023-02-04T08:55:59;103555.88;;;7.41;42.81
39954;BME280;25631;51.516;-0.470;2023-02-04T08:58:36;103561.97;;;7.73;42.84
39954;BME280;25631;51.516;-0.470;2023-02-04T09:01:13;103565.02;;;7.10;42.83
39954;BME280;25631;51.516;-0.470;2023-02-04T09:03:49;103568.33;;;7.63;42.74
39954;BME280;25631;51.516;-0.470;2023-02-04T09:06:26;103570.83;;;7.62;42.61
39954;BME280;25631;51.516;-0.470;2023-02-04T09:09:02;103571.84;;;7.27;42.52
39954;BME280;25631;51.516;-0.470;2023-02-04T09:11:39;103572.03;;;7.70;42.49
39954;BME280;25631;51.516;-0.470;2023-02-04T09:14:16;103574.80;;;7.48;42.46
39954;BME280;25631;51.516;-0.470;2023-02-04T09:16:52;103575.53;;;7.68;42.41
39954;BME280;25631;51.516;-0.470;2023-02-04T09:19:29;103573.37;;;7.10;42.43
39954;BME280;25631;51.516;-0.470;2023-02-04T09:22:05;103574.02;;;7.58;42.38
39954;BME280;25631;51.516;-0.470;2023-02-04T09:24:42;103574.33;;;8.27;42.35
39954;BME280;25631;51.516;-0.470;2023-02-04T09:27:19;103575.67;;;7.62;42.31
39954;BME280;25631;51.516;-0.470;2023-02-04T09:29:55;103572.94;;;7.72;42.10
39954;BME280;25631;51.516;-0.470;2023-02-04T09:32:32;103572.57;;;7.78;42.11
39954;BME280;25631;51.516;-0.470;2023-02-04T09:35:09;103574.42;;;7.76;42.09
39954;BME280;25631;51.516;-0.470;2023-02-04T09:37:46;103577.71;;;7.78;42.02
39954;BME280;25631;51.516;-0.470;2023-02-04T09:40:26;103574.83;;;8.04;41.87
39954;BME280;25631;51.516;-0.470;2023-02-04T09:43:04;103576.90;;;8.15;41.73
39954;BME280;25631;51.516;-0.470;2023-02-04T09:45:41;103579.82;;;8.07;41.73
39954;BME280;25631;51.516;-0.470;2023-02-04T09:48:18;103585.32;;;7.84;41.50
39954;BME280;25631;51.516;-0.470;2023-02-04T09:51:02;103590.60;;;7.98;41.27
39954;BME280;25631;51.516;-0.470;2023-02-04T09:53:42;103589.17;;;8.13;41.18
39954;BME280;25631;51.516;-0.470;2023-02-04T09:56:19;103593.32;;;7.69;41.18
39954;BME280;25631;51.516;-0.470;2023-02-04T09:58:57;103591.06;;;7.92;41.21
39954;BME280;25631;51.516;-0.470;2023-02-04T10:01:39;103590.38;;;7.96;41.36
39954;BME280;25631;51.516;-0.470;2023-02-04T10:04:21;103593.35;;;8.10;41.28
39954;BME280;25631;51.516;-0.470;2023-02-04T10:06:59;103594.74;;;8.33;41.19
39954;BME280;25631;51.516;-0.470;2023-02-04T10:09:36;103592.36;;;8.21;41.05
39954;BME280;25631;51.516;-0.470;2023-02-04T10:12:13;103591.41;;;8.14;41.04
39954;BME280;25631;51.516;-0.470;2023-02-04T10:14:51;103591.17;;;7.92;41.32
39954;BME280;25631;51.516;-0.470;2023-02-04T10:17:28;103591.19;;;7.87;41.49
39954;BME280;25631;51.516;-0.470;2023-02-04T10:20:11;103595.56;;;8.00;41.38
39954;BME280;25631;51.516;-0.470;2023-02-04T10:22:51;103598.59;;;8.16;41.24
39954;BME280;25631;51.516;-0.470;2023-02-04T10:25:28;103600.70;;;7.97;41.23
39954;BME280;25631;51.516;-0.470;2023-02-04T10:28:05;103604.57;;;8.06;41.01
39954;BME280;25631;51.516;-0.470;2023-02-04T10:30:47;103611.04;;;8.30;40.94
39954;BME280;25631;51.516;-0.470;2023-02-04T10:33:24;103610.48;;;8.33;40.87
39954;BME280;25631;51.516;-0.470;2023-02-04T10:36:00;103614.06;;;8.52;40.70
39954;BME280;25631;51.516;-0.470;2023-02-04T10:38:38;103610.73;;;8.34;40.67
39954;BME280;25631;51.516;-0.470;2023-02-04T10:41:19;103614.63;;;8.31;40.76
39954;BME280;25631;51.516;-0.470;2023-02-04T10:44:06;103614.72;;;8.32;40.94
39954;BME280;25631;51.516;-0.470;2023-02-04T10:46:44;103616.31;;;8.36;40.77
39954;BME280;25631;51.516;-0.470;2023-02-04T10:49:23;103616.14;;;8.19;40.89
39954;BME280;25631;51.516;-0.470;2023-02-04T10:52:00;103621.47;;;8.15;40.75
39954;BME280;25631;51.516;-0.470;2023-02-04T10:54:38;103625.19;;;8.38;40.81
39954;BME280;25631;51.516;-0.470;2023-02-04T10:57:18;103624.64;;;8.58;40.77
39954;BME280;25631;51.516;-0.470;2023-02-04T11:00:06;103627.31;;;8.58;40.74
39954;BME280;25631;51.516;-0.470;2023-02-04T11:02:52;103628.52;;;8.65;40.60
39954;BME280;25631;51.516;-0.470;2023-02-04T11:05:32;103630.21;;;8.21;40.63
39954;BME280;25631;51.516;-0.470;2023-02-04T11:08:20;103628.30;;;8.55;40.64
39954;BME280;25631;51.516;-0.470;2023-02-04T11:11:05;103627.69;;;8.37;40.72
39954;BME280;25631;51.516;-0.470;2023-02-04T11:13:56;103626.47;;;8.25;40.76
39954;BME280;25631;51.516;-0.470;2023-02-04T11:16:33;103626.12;;;8.34;40.73
39954;BME280;25631;51.516;-0.470;2023-02-04T11:19:11;103623.03;;;8.26;40.75
39954;BME280;25631;51.516;-0.470;2023-02-04T11:21:48;103622.60;;;8.04;40.85
39954;BME280;25631;51.516;-0.470;2023-02-04T11:24:25;103621.86;;;8.02;40.95
39954;BME280;25631;51.516;-0.470;2023-02-04T11:27:20;103625.40;;;7.86;41.06
39954;BME280;25631;51.516;-0.470;2023-02-04T11:30:04;103627.12;;;8.24;41.16
39954;BME280;25631;51.516;-0.470;2023-02-04T11:32:41;103626.91;;;7.90;41.11
39954;BME280;25631;51.516;-0.470;2023-02-04T11:35:24;103622.25;;;7.84;40.95
39954;BME280;25631;51.516;-0.470;2023-02-04T11:38:01;103619.49;;;8.12;40.86
39954;BME280;25631;51.516;-0.470;2023-02-04T11:40:38;103619.11;;;7.96;40.88
39954;BME280;25631;51.516;-0.470;2023-02-04T11:43:15;103619.52;;;8.03;40.81
39954;BME280;25631;51.516;-0.470;2023-02-04T11:46:01;103625.15;;;8.07;40.73
39954;BME280;25631;51.516;-0.470;2023-02-04T11:48:38;103623.54;;;8.22;40.54
39954;BME280;25631;51.516;-0.470;2023-02-04T11:51:17;103623.81;;;8.16;40.47
39954;BME280;25631;51.516;-0.470;2023-02-04T11:53:56;103624.44;;;7.95;40.49
39954;BME280;25631;51.516;-0.470;2023-02-04T11:56:32;103624.43;;;8.04;40.50
39954;BME280;25631;51.516;-0.470;2023-02-04T11:59:11;103624.38;;;7.92;40.60
39954;BME280;25631;51.516;-0.470;2023-02-04T12:01:47;103622.32;;;8.13;40.58
39954;BME280;25631;51.516;-0.470;2023-02-04T12:04:24;103626.59;;;8.03;40.54
39954;BME280;25631;51.516;-0.470;2023-02-04T12:07:02;103625.29;;;8.13;40.37
39954;BME280;25631;51.516;-0.470;2023-02-04T12:09:46;103619.52;;;8.14;40.25
39954;BME280;25631;51.516;-0.470;2023-02-04T12:12:29;103619.42;;;8.17;40.25
39954;BME280;25631;51.516;-0.470;2023-02-04T12:15:13;103620.89;;;8.00;40.37
39954;BME280;25631;51.516;-0.470;2023-02-04T12:18:08;103620.22;;;7.96;40.40
39954;BME280;25631;51.516;-0.470;2023-02-04T12:20:45;103617.56;;;7.95;40.30
39954;BME280;25631;51.516;-0.470;2023-02-04T12:23:22;103618.89;;;8.15;40.29
39954;BME280;25631;51.516;-0.470;2023-02-04T12:25:58;103623.85;;;8.22;40.20
39954;BME280;25631;51.516;-0.470;2023-02-04T12:28:35;103621.49;;;8.17;40.05
39954;BME280;25631;51.516;-0.470;2023-02-04T12:31:12;103624.47;;;8.14;39.95
39954;BME280;25631;51.516;-0.470;2023-02-04T12:33:49;103626.84;;;8.16;40.11
39954;BME280;25631;51.516;-0.470;2023-02-04T12:36:25;103633.26;;;8.20;40.01
39954;BME280;25631;51.516;-0.470;2023-02-04T12:39:02;103628.15;;;8.16;39.93
39954;BME280;25631;51.516;-0.470;2023-02-04T12:41:39;103626.61;;;8.14;39.88
39954;BME280;25631;51.516;-0.470;2023-02-04T12:44:15;103625.29;;;7.84;40.08
39954;BME280;25631;51.516;-0.470;2023-02-04T12:46:56;103623.41;;;7.47;40.26
39954;BME280;25631;51.516;-0.470;2023-02-04T12:49:32;103625.07;;;7.74;40.18
39954;BME280;25631;51.516;-0.470;2023-02-04T12:52:09;103623.85;;;7.89;39.95
39954;BME280;25631;51.516;-0.470;2023-02-04T12:54:45;103623.52;;;7.89;39.81
39954;BME280;25631;51.516;-0.470;2023-02-04T12:57:22;103626.03;;;7.92;39.78
39954;BME280;25631;51.516;-0.470;2023-02-04T13:00:05;103629.40;;;7.95;39.56
39954;BME280;25631;51.516;-0.470;2023-02-04T13:02:42;103631.23;;;7.76;39.34
39954;BME280;25631;51.516;-0.470;2023-02-04T13:05:18;103635.77;;;8.10;39.33
39954;BME280;25631;51.516;-0.470;2023-02-04T13:07:55;103636.82;;;7.99;39.18
39954;BME280;25631;51.516;-0.470;2023-02-04T13:10:32;103633.91;;;8.11;38.89
39954;BME280;25631;51.516;-0.470;2023-02-04T13:13:08;103632.36;;;8.15;38.19
39954;BME280;25631;51.516;-0.470;2023-02-04T13:15:50;103631.43;;;8.22;37.89
39954;BME280;25631;51.516;-0.470;2023-02-04T13:18:27;103627.73;;;7.73;37.95
39954;BME280;25631;51.516;-0.470;2023-02-04T13:21:04;103625.40;;;8.17;37.85
39954;BME280;25631;51.516;-0.470;2023-02-04T13:23:41;103628.97;;;8.25;38.03
39954;BME280;25631;51.516;-0.470;2023-02-04T13:26:18;103629.40;;;8.36;37.77
39954;BME280;25631;51.516;-0.470;2023-02-04T13:28:54;103631.65;;;8.26;37.66
39954;BME280;25631;51.516;-0.470;2023-02-04T13:31:31;103627.31;;;8.05;37.39
39954;BME280;25631;51.516;-0.470;2023-02-04T13:34:08;103625.67;;;7.85;37.02
39954;BME280;25631;51.516;-0.470;2023-02-04T13:36:46;103625.54;;;8.36;36.82
39954;BME280;25631;51.516;-0.470;2023-02-04T13:39:23;103625.90;;;8.37;36.88
39954;BME280;25631;51.516;-0.470;2023-02-04T13:42:00;103622.44;;;8.24;36.56
39954;BME280;25631;51.516;-0.470;2023-02-04T13:44:36;103621.46;;;8.41;36.70